createdAt,value
2023-05-18T00:01:00.292Z,4.72
2023-05-18T00:03:47.359Z,4.70
2023-05-18T00:06:33.833Z,4.71
2023-05-18T00:09:20.199Z,4.68
2023-05-18T00:12:07.065Z,4.44
2023-05-18T00:14:54.423Z,4.19
2023-05-18T00:20:37.700Z,4.41
2023-05-18T00:23:24.872Z,4.48
2023-05-18T00:26:10.683Z,4.28
2023-05-18T00:28:56.933Z,4.27
2023-05-18T00:31:45.451Z,4.18
2023-05-18T00:34:32.362Z,4.36
2023-05-18T00:37:18.527Z,4.36
2023-05-18T00:40:12.422Z,4.20
2023-05-18T00:43:05.818Z,4.05
2023-05-18T00:45:58.249Z,3.98
2023-05-18T00:52:15.920Z,4.07
2023-05-18T00:55:09.826Z,4.09
2023-05-18T00:58:02.256Z,4.12
2023-05-18T01:00:56.300Z,4.19
2023-05-18T01:03:49.624Z,4.08
2023-05-18T01:09:58.049Z,4.12
2023-05-18T01:12:55.017Z,3.99
2023-05-18T01:15:52.568Z,3.83
2023-05-18T01:18:54.735Z,3.98
2023-05-18T01:21:55.667Z,3.97
2023-05-18T01:24:49.781Z,3.77
2023-05-18T01:27:46.409Z,3.97
2023-05-18T01:30:42.668Z,3.79
2023-05-18T01:33:36.394Z,3.55
2023-05-18T01:36:54.805Z,3.57
2023-05-18T01:39:47.641Z,3.81
2023-05-18T01:42:45.987Z,3.88
2023-05-18T01:48:55.513Z,3.67
2023-05-18T01:51:49.891Z,3.72
2023-05-18T01:54:39.927Z,3.75
2023-05-18T01:57:34.565Z,3.48
2023-05-18T02:00:28.568Z,3.55
2023-05-18T02:03:22.096Z,3.71
2023-05-18T02:06:15.483Z,3.74
2023-05-18T02:09:08.961Z,3.68
2023-05-18T02:15:31.989Z,3.51
2023-05-18T02:18:26.712Z,3.58
2023-05-18T02:21:19.425Z,3.53
2023-05-18T02:24:12.815Z,3.52
2023-05-18T02:27:06.800Z,3.45
2023-05-18T02:30:24.301Z,3.47
2023-05-18T02:33:19.545Z,3.44
2023-05-18T02:36:49.815Z,3.30
2023-05-18T02:39:43.461Z,3.09
2023-05-18T02:43:04.677Z,3.27
2023-05-18T02:45:57.534Z,2.97
2023-05-18T02:48:51.842Z,3.12
2023-05-18T02:55:03.431Z,3.15
2023-05-18T02:58:14.551Z,3.17
2023-05-18T03:01:41.042Z,3.19
2023-05-18T03:04:37.789Z,3.37
2023-05-18T03:07:32.985Z,3.29
2023-05-18T03:10:26.463Z,3.03
2023-05-18T03:13:19.569Z,2.74
2023-05-18T03:16:13.301Z,2.87
2023-05-18T03:19:06.470Z,3.11
2023-05-18T03:25:33.678Z,2.77
2023-05-18T03:28:27.285Z,2.90
2023-05-18T03:31:20.393Z,2.94
2023-05-18T03:34:13.736Z,3.04
2023-05-18T03:40:20.057Z,3.16
2023-05-18T03:43:15.670Z,3.15
2023-05-18T03:46:09.340Z,2.93
2023-05-18T03:49:03.407Z,2.87
2023-05-18T03:52:02.911Z,2.96
2023-05-18T03:54:56.829Z,3.23
2023-05-18T03:57:49.734Z,3.40
2023-05-18T04:00:43.558Z,3.58
2023-05-18T04:06:55.704Z,3.72
2023-05-18T04:09:49.015Z,3.83
2023-05-18T04:12:41.709Z,3.58
2023-05-18T04:15:35.286Z,3.67
2023-05-18T04:18:30.101Z,3.88
2023-05-18T04:21:23.314Z,4.16
2023-05-18T04:24:16.576Z,4.29
2023-05-18T04:30:30.292Z,4.18
2023-05-18T04:33:23.976Z,4.52
2023-05-18T04:36:21.405Z,4.69
2023-05-18T04:39:14.998Z,4.64
2023-05-18T04:42:21.366Z,4.90
2023-05-18T04:45:17.563Z,5.01
2023-05-18T04:48:10.760Z,5.23
2023-05-18T04:51:04.649Z,5.30
2023-05-18T04:53:58.898Z,5.50
2023-05-18T04:56:51.592Z,5.73
2023-05-18T05:02:57.467Z,5.94
2023-05-18T05:05:50.303Z,6.05
2023-05-18T05:11:59.801Z,6.18
2023-05-18T05:14:52.498Z,6.46
2023-05-18T05:17:47.307Z,7.03
2023-05-18T05:20:40.370Z,8.60
2023-05-18T05:23:33.535Z,9.95
2023-05-18T05:26:26.432Z,12.09
2023-05-18T05:29:21.491Z,13.62
2023-05-18T05:35:25.479Z,16.27
2023-05-18T05:41:43.542Z,18.25
2023-05-18T05:44:39.310Z,18.93
2023-05-18T05:47:32.486Z,19.94
2023-05-18T05:50:25.407Z,20.76
2023-05-18T05:56:32.684Z,21.75
2023-05-18T05:59:25.332Z,21.15
2023-05-18T06:02:19.875Z,20.88
2023-05-18T06:05:13.532Z,20.99
2023-05-18T06:08:06.613Z,19.84
2023-05-18T06:10:59.392Z,19.64
2023-05-18T06:13:53.221Z,21.44
2023-05-18T06:16:46.236Z,18.93
2023-05-18T06:19:41.053Z,21.10
2023-05-18T06:22:33.128Z,22.00
2023-05-18T06:29:08.818Z,22.44
2023-05-18T06:32:20.438Z,20.22
2023-05-18T06:35:20.722Z,20.78
2023-05-18T06:38:13.479Z,19.61
2023-05-18T06:41:06.541Z,19.79
2023-05-18T06:44:01.391Z,20.02
2023-05-18T06:50:16.243Z,21.44
2023-05-18T06:53:10.682Z,21.33
2023-05-18T06:56:04.751Z,20.65
2023-05-18T06:58:58.968Z,19.00
2023-05-18T07:01:53.340Z,20.23
2023-05-18T07:04:48.014Z,21.35
2023-05-18T07:07:40.368Z,19.64
2023-05-18T07:14:10.681Z,22.28
2023-05-18T07:17:31.708Z,21.30
2023-05-18T07:20:26.137Z,22.16
2023-05-18T07:23:19.626Z,21.97
2023-05-18T07:26:12.510Z,21.75
2023-05-18T07:32:13.518Z,20.25
2023-05-18T07:35:06.817Z,19.89
2023-05-18T07:37:59.438Z,19.39
2023-05-18T07:40:52.772Z,20.05
2023-05-18T07:43:45.254Z,20.44
2023-05-18T07:46:38.397Z,21.75
2023-05-18T07:49:32.697Z,22.34
2023-05-18T07:52:25.593Z,22.02
2023-05-18T07:58:30.748Z,19.95
2023-05-18T08:01:27.311Z,20.04
2023-05-18T08:04:20.475Z,19.88
2023-05-18T08:07:14.627Z,20.46
2023-05-18T08:13:23.635Z,21.43
2023-05-18T08:16:16.487Z,21.80
2023-05-18T08:19:09.278Z,23.17
2023-05-18T08:22:02.420Z,21.30
2023-05-18T08:24:58.054Z,22.85
2023-05-18T08:27:50.768Z,21.94
2023-05-18T08:30:43.658Z,22.82
2023-05-18T08:36:47.270Z,22.68
2023-05-18T08:39:40.462Z,23.13
2023-05-18T08:42:49.441Z,23.46
2023-05-18T08:45:46.062Z,25.00
2023-05-18T08:48:44.865Z,24.78
2023-05-18T08:51:40.505Z,26.20
2023-05-18T08:54:33.977Z,24.58
2023-05-18T09:00:40.078Z,24.81
2023-05-18T09:03:32.664Z,26.37
2023-05-18T09:06:29.309Z,28.36
2023-05-18T09:09:23.280Z,26.30
2023-05-18T09:12:17.226Z,27.71
2023-05-18T09:15:11.796Z,25.85
2023-05-18T09:18:05.958Z,24.14
2023-05-18T09:20:58.212Z,25.26
2023-05-18T09:23:51.421Z,26.45
2023-05-18T09:26:44.582Z,26.45
2023-05-18T09:29:33.992Z,27.62
2023-05-18T09:32:27.338Z,27.55
2023-05-18T09:35:22.765Z,25.75
2023-05-18T09:38:17.306Z,25.38
2023-05-18T09:41:11.162Z,24.00
2023-05-18T09:44:08.903Z,24.61
2023-05-18T09:47:01.579Z,24.39
2023-05-18T09:49:57.489Z,23.68
2023-05-18T09:53:27.660Z,22.80
2023-05-18T09:56:21.800Z,24.16
2023-05-18T09:59:16.148Z,24.57
2023-05-18T10:05:27.151Z,25.37
2023-05-18T10:08:19.422Z,22.94
2023-05-18T10:11:13.157Z,22.65
2023-05-18T10:14:06.759Z,23.03
2023-05-18T10:17:14.413Z,22.57
2023-05-18T10:20:40.151Z,22.32
2023-05-18T10:23:34.573Z,21.94
2023-05-18T10:29:46.362Z,23.14
2023-05-18T10:35:40.864Z,22.74
2023-05-18T10:38:28.588Z,23.77
2023-05-18T10:41:14.507Z,22.22
2023-05-18T10:44:03.849Z,21.60
2023-05-18T10:46:51.536Z,21.98
2023-05-18T10:49:38.333Z,22.38
2023-05-18T10:52:26.456Z,21.36
2023-05-18T10:55:13.329Z,22.96
2023-05-18T10:58:03.621Z,23.14
2023-05-18T11:00:51.666Z,22.18
2023-05-18T11:03:39.602Z,22.17
2023-05-18T11:06:25.752Z,22.39
2023-05-18T11:09:23.857Z,22.06
2023-05-18T11:12:41.602Z,21.98
2023-05-18T11:16:06.505Z,20.19
2023-05-18T11:22:13.601Z,21.02
2023-05-18T11:25:09.393Z,21.94
2023-05-18T11:28:05.224Z,22.85
2023-05-18T11:30:57.253Z,22.51
2023-05-18T11:33:49.495Z,20.45
2023-05-18T11:36:46.346Z,19.44
2023-05-18T11:39:51.689Z,19.69
2023-05-18T11:42:44.401Z,20.87
2023-05-18T11:45:53.049Z,21.22
2023-05-18T11:48:45.307Z,21.11
2023-05-18T11:51:58.557Z,22.96
2023-05-18T11:54:53.975Z,22.91
2023-05-18T12:01:01.299Z,21.88
2023-05-18T12:03:54.814Z,22.37
2023-05-18T12:06:47.607Z,22.34
2023-05-18T12:09:41.879Z,21.71
2023-05-18T12:15:45.037Z,22.71
2023-05-18T12:18:39.741Z,22.40
2023-05-18T12:21:32.118Z,23.21
2023-05-18T12:24:24.810Z,23.53
2023-05-18T12:27:18.224Z,24.15
2023-05-18T12:30:11.849Z,22.77
2023-05-18T12:33:06.884Z,21.39
2023-05-18T12:35:59.330Z,21.20
2023-05-18T12:42:15.516Z,21.79
2023-05-18T12:49:01.433Z,22.06
2023-05-18T12:52:25.986Z,22.76
2023-05-18T12:55:21.531Z,23.34
2023-05-18T12:58:18.134Z,22.78
2023-05-18T13:01:12.167Z,22.57
2023-05-18T13:04:11.826Z,22.42
2023-05-18T13:07:04.512Z,22.71
2023-05-18T13:10:01.886Z,23.78
2023-05-18T13:12:58.951Z,24.59
2023-05-18T13:15:51.889Z,24.45
2023-05-18T13:18:47.398Z,24.52
2023-05-18T13:22:04.510Z,23.85
2023-05-18T13:24:52.899Z,24.61
2023-05-18T13:31:13.027Z,24.09
2023-05-18T13:37:31.139Z,23.74
2023-05-18T13:40:25.697Z,23.63
2023-05-18T13:43:18.653Z,23.02
2023-05-18T13:46:11.681Z,24.12
2023-05-18T13:49:42.704Z,24.23
2023-05-18T13:52:35.608Z,23.61
2023-05-18T13:55:30.122Z,24.54
2023-05-18T13:58:23.699Z,24.17
2023-05-18T14:01:17.825Z,23.68
2023-05-18T14:04:10.181Z,23.52
2023-05-18T14:07:02.739Z,22.52
2023-05-18T14:10:32.816Z,22.19
2023-05-18T14:13:26.804Z,22.52
2023-05-18T14:16:56.724Z,22.40
2023-05-18T14:19:49.275Z,23.65
2023-05-18T14:22:41.747Z,23.52
2023-05-18T14:25:34.535Z,23.69
2023-05-18T14:28:30.089Z,24.24
2023-05-18T14:31:22.844Z,24.66
2023-05-18T14:34:15.366Z,24.70
2023-05-18T14:37:08.680Z,23.93
2023-05-18T14:40:01.771Z,24.39
2023-05-18T14:42:54.524Z,23.76
2023-05-18T14:46:07.558Z,23.22
2023-05-18T14:49:01.656Z,23.90
2023-05-18T14:51:55.052Z,24.62
2023-05-18T14:54:48.338Z,25.02
2023-05-18T14:57:41.519Z,24.32
2023-05-18T15:00:35.126Z,24.04
2023-05-18T15:03:29.065Z,23.70
2023-05-18T15:06:21.376Z,23.43
2023-05-18T15:09:15.047Z,24.09
2023-05-18T15:12:08.004Z,23.15
2023-05-18T15:15:00.273Z,23.03
2023-05-18T15:17:52.801Z,22.90
2023-05-18T15:20:47.567Z,22.82
2023-05-18T15:23:40.152Z,22.94
2023-05-18T15:26:32.660Z,23.28
2023-05-18T15:29:25.858Z,23.40
2023-05-18T15:32:18.346Z,22.97
2023-05-18T15:35:11.728Z,22.68
2023-05-18T15:38:05.809Z,22.31
2023-05-18T15:40:58.295Z,22.47
2023-05-18T15:43:50.426Z,22.49
2023-05-18T15:46:43.571Z,21.92
2023-05-18T15:49:36.460Z,21.26
2023-05-18T15:52:29.740Z,21.33
2023-05-18T15:55:24.218Z,20.74
2023-05-18T15:58:16.815Z,20.53
2023-05-18T16:01:09.668Z,20.14
2023-05-18T16:07:14.745Z,19.01
2023-05-18T16:10:08.363Z,18.60
2023-05-18T16:13:05.733Z,18.69
2023-05-18T16:19:10.851Z,18.40
2023-05-18T16:22:03.250Z,18.17
2023-05-18T16:24:53.356Z,18.31
2023-05-18T16:27:46.351Z,18.14
2023-05-18T16:30:40.746Z,18.12
2023-05-18T16:33:33.138Z,17.99
2023-05-18T16:36:26.092Z,18.20
2023-05-18T16:39:18.430Z,18.53
2023-05-18T16:42:12.233Z,18.09
2023-05-18T16:45:05.046Z,17.68
2023-05-18T16:48:00.633Z,17.59
2023-05-18T16:50:53.562Z,17.79
2023-05-18T16:53:46.548Z,18.16
2023-05-18T16:56:39.318Z,17.53
2023-05-18T16:59:32.914Z,17.64
2023-05-18T17:02:25.614Z,17.64
2023-05-18T17:05:21.549Z,17.42
2023-05-18T17:08:15.002Z,17.59
2023-05-18T17:11:07.819Z,17.44
2023-05-18T17:14:01.503Z,17.46
2023-05-18T17:16:54.400Z,17.36
2023-05-18T17:20:13.060Z,17.25
2023-05-18T17:23:06.958Z,17.09
2023-05-18T17:26:05.941Z,17.04
2023-05-18T17:29:36.732Z,16.77
2023-05-18T17:32:29.680Z,16.46
2023-05-18T17:35:39.838Z,16.50
2023-05-18T17:38:30.797Z,15.92
2023-05-18T17:41:25.647Z,15.94
2023-05-18T17:44:18.452Z,16.05
2023-05-18T17:47:11.152Z,15.52
2023-05-18T17:50:28.250Z,15.39
2023-05-18T17:53:20.679Z,15.53
2023-05-18T17:56:28.270Z,15.46
2023-05-18T17:59:21.654Z,15.08
2023-05-18T18:05:35.523Z,15.01
2023-05-18T18:08:30.325Z,15.01
2023-05-18T18:11:24.511Z,15.04
2023-05-18T18:14:17.487Z,15.10
2023-05-18T18:17:11.674Z,15.00
2023-05-18T18:20:05.605Z,14.92
2023-05-18T18:26:09.869Z,14.87
2023-05-18T18:29:02.800Z,14.67
2023-05-18T18:32:01.737Z,14.76
2023-05-18T18:34:56.254Z,14.61
2023-05-18T18:37:48.540Z,14.32
2023-05-18T18:40:41.731Z,14.42
2023-05-18T18:43:38.539Z,14.38
2023-05-18T18:46:31.711Z,14.31
2023-05-18T18:49:24.416Z,14.26
2023-05-18T18:56:05.267Z,13.94
2023-05-18T18:59:08.960Z,13.71
2023-05-18T19:02:01.707Z,13.40
2023-05-18T19:04:54.427Z,13.31
2023-05-18T19:07:49.154Z,13.10
2023-05-18T19:10:41.511Z,12.78
2023-05-18T19:13:35.621Z,12.17
2023-05-18T19:16:28.734Z,11.92
2023-05-18T19:22:28.358Z,11.56
2023-05-18T19:25:22.232Z,11.42
2023-05-18T19:28:14.877Z,11.37
2023-05-18T19:31:10.228Z,11.47
2023-05-18T19:34:02.365Z,11.39
2023-05-18T19:36:55.414Z,11.41
2023-05-18T19:39:48.726Z,11.26
2023-05-18T19:43:06.474Z,10.87
2023-05-18T19:45:59.475Z,10.58
2023-05-18T19:49:06.614Z,10.47
2023-05-18T19:52:00.838Z,10.14
2023-05-18T19:58:39.663Z,10.32
2023-05-18T20:01:33.336Z,10.05
2023-05-18T20:04:28.290Z,9.67
2023-05-18T20:07:23.872Z,9.48
2023-05-18T20:10:16.572Z,9.38
2023-05-18T20:13:34.442Z,9.48
2023-05-18T20:16:28.989Z,9.41
2023-05-18T20:22:52.090Z,9.41
2023-05-18T20:25:47.823Z,9.39
2023-05-18T20:29:17.748Z,9.07
2023-05-18T20:32:10.591Z,8.83
2023-05-18T20:35:19.665Z,8.82
2023-05-18T20:38:12.583Z,8.92
2023-05-18T20:44:52.847Z,8.79
2023-05-18T20:47:45.525Z,8.39
2023-05-18T20:50:39.060Z,8.13
2023-05-18T20:53:33.050Z,8.24
2023-05-18T20:56:26.535Z,8.25
2023-05-18T20:59:19.867Z,8.37
2023-05-18T21:02:12.529Z,8.54
2023-05-18T21:08:21.800Z,8.19
2023-05-18T21:14:33.157Z,8.17
2023-05-18T21:17:25.555Z,8.10
2023-05-18T21:20:18.462Z,8.30
2023-05-18T21:23:11.173Z,8.26
2023-05-18T21:26:03.734Z,8.20
2023-05-18T21:28:56.784Z,7.96
2023-05-18T21:31:50.970Z,7.74
2023-05-18T21:34:43.957Z,7.78
2023-05-18T21:37:36.391Z,7.78
2023-05-18T21:40:30.027Z,7.77
2023-05-18T21:47:09.994Z,7.66
2023-05-18T21:50:35.494Z,7.54
2023-05-18T21:53:28.691Z,7.49
2023-05-18T21:56:38.659Z,7.57
2023-05-18T21:59:28.969Z,7.61
2023-05-18T22:02:23.141Z,7.54
2023-05-18T22:05:15.563Z,7.63
2023-05-18T22:08:08.555Z,7.69
2023-05-18T22:11:02.186Z,7.83
2023-05-18T22:13:55.190Z,7.79
2023-05-18T22:16:47.670Z,7.72
2023-05-18T22:19:42.973Z,7.52
2023-05-18T22:22:35.556Z,7.56
2023-05-18T22:25:28.600Z,7.40
2023-05-18T22:28:22.208Z,7.40
2023-05-18T22:31:14.474Z,7.37
2023-05-18T22:34:10.957Z,7.46
2023-05-18T22:37:04.792Z,7.48
2023-05-18T22:39:57.545Z,7.36
2023-05-18T22:42:50.699Z,7.28
2023-05-18T22:45:43.504Z,7.22
2023-05-18T22:51:53.138Z,7.11
2023-05-18T22:58:03.185Z,6.75
2023-05-18T23:04:07.863Z,6.63
2023-05-18T23:07:01.635Z,6.71
2023-05-18T23:09:54.686Z,6.73
2023-05-18T23:12:48.250Z,6.70
2023-05-18T23:15:41.691Z,6.86
2023-05-18T23:18:34.347Z,6.98
2023-05-18T23:21:27.519Z,7.09
2023-05-18T23:24:20.786Z,6.72
2023-05-18T23:27:13.721Z,6.72
2023-05-18T23:30:07.706Z,6.69
2023-05-18T23:33:02.701Z,6.71
2023-05-18T23:39:03.162Z,6.79
2023-05-18T23:41:49.677Z,6.95
2023-05-18T23:44:36.315Z,7.00
2023-05-18T23:47:22.697Z,6.96
2023-05-18T23:50:11.354Z,6.95
2023-05-18T23:53:01.194Z,6.91
2023-05-18T23:56:07.587Z,6.83
2023-05-18T23:58:54.416Z,6.72
